Accueil
METAR-TAF:

METAR-TAF

Aéroports :

Arnhem, Pays-Bas

latitude: 52-04N, longitude: 005-53E, altitude: 48 m

Observation

Le bulletin a été fait il y a 15 minutes, à 01:55 UTC
Vent 6 kt de sud, variant entre sud-est et sud-ouest
Température 19°C
Humidité 88%
Pression 1012 hPa
Visibilité 10 km ou plus
Quelques nuages à une hauteur de 34000 ft

METAR: EHDL 190155Z AUTO 19006KT 130V220 9999 FEW340 19/17 Q1012 BLU

Heure: 04:10 (02:10 UTC)


TAF: absent

Observations et prévisions météorologiques de plus de 4000 aéroports (messages METAR et TAF).

Les stations disponibles sont représentées par des disques jaunes et rouges sur la carte.

Passer la souris dessus pour voir le nom de la station.

Cliquer dessus pour voir les observations et prévisions météorologiques.

Pour changer de carte: cliquez sur les boutons verts avec une croix noire pour zoomer, sur le bouton vert avec un tiret pour effectuer un zoom arrière, ou sur les flèches vertes pour les cartes adjacentes.


METAR-TAF: